createdAt,value
2023-04-16T00:00:32.563Z,3.1
2023-04-16T00:06:16.747Z,2.8
2023-04-16T00:12:02.934Z,2.8
2023-04-16T00:17:47.366Z,2.7
2023-04-16T00:23:31.437Z,3
2023-04-16T00:29:15.371Z,3
2023-04-16T00:34:59.277Z,3
2023-04-16T00:40:43.393Z,3.1
2023-04-16T00:46:28.294Z,3.1
2023-04-16T00:52:13.477Z,3.4
2023-04-16T00:57:57.487Z,3.4
2023-04-16T01:03:46.506Z,4.1
2023-04-16T01:09:30.693Z,4
2023-04-16T01:15:14.984Z,4.2
2023-04-16T01:20:59.105Z,4
2023-04-16T01:26:43.195Z,4.1
2023-04-16T01:32:27.345Z,4.1
2023-04-16T01:38:11.602Z,4.1
2023-04-16T01:43:55.739Z,3.9
2023-04-16T01:49:39.870Z,3.7
2023-04-16T01:55:23.862Z,3.5
2023-04-16T02:01:08.837Z,3.6
2023-04-16T02:06:53.767Z,3.6
2023-04-16T02:12:37.878Z,4
2023-04-16T02:18:21.953Z,3.5
2023-04-16T02:24:06.547Z,3.3
2023-04-16T02:29:50.705Z,3.3
2023-04-16T02:35:34.958Z,2.9
2023-04-16T02:41:18.981Z,3
2023-04-16T02:47:03.107Z,2.9
2023-04-16T02:52:47.106Z,3.2
2023-04-16T02:58:31.064Z,2.8
2023-04-16T03:04:15.178Z,2.6
2023-04-16T03:09:59.512Z,2.9
2023-04-16T03:15:49.788Z,2.8
2023-04-16T03:21:33.902Z,2.9
2023-04-16T03:27:17.720Z,2.8
2023-04-16T03:33:02.049Z,2.9
2023-04-16T03:38:46.538Z,2.5
2023-04-16T03:44:30.550Z,2.5
2023-04-16T03:50:14.827Z,2.5
2023-04-16T03:55:58.848Z,2.5
2023-04-16T04:01:42.854Z,2.7
2023-04-16T04:07:27.218Z,2.5
2023-04-16T04:13:11.419Z,2.2
2023-04-16T04:18:55.882Z,2.4
2023-04-16T04:24:39.912Z,2.2
2023-04-16T04:30:24.059Z,2.5
2023-04-16T04:36:09.547Z,2.1
2023-04-16T04:41:53.545Z,2.2
2023-04-16T04:47:37.701Z,2.3
2023-04-16T04:53:21.778Z,1.9
2023-04-16T04:59:05.868Z,1.9
2023-04-16T05:04:50.002Z,1.8
2023-04-16T05:10:34.058Z,1.9
2023-04-16T05:16:18.317Z,1.9
2023-04-16T05:22:02.340Z,1.9
2023-04-16T05:27:46.662Z,1.8
2023-04-16T05:33:30.815Z,1.7
2023-04-16T05:39:14.907Z,1.7
2023-04-16T05:44:58.828Z,1.8
2023-04-16T05:50:42.958Z,1.8
2023-04-16T05:56:26.910Z,1.7
2023-04-16T06:02:12.154Z,1.7
2023-04-16T06:07:56.647Z,1.9
2023-04-16T06:13:41.589Z,2
2023-04-16T06:19:25.520Z,1.8
2023-04-16T06:25:09.986Z,1.8
2023-04-16T06:30:54.017Z,1.8
2023-04-16T06:36:37.852Z,2
2023-04-16T06:42:22.092Z,1.8
2023-04-16T06:48:06.864Z,1.7
2023-04-16T06:53:50.890Z,1.9
2023-04-16T06:59:35.866Z,1.9
2023-04-16T07:05:20.274Z,1.6
2023-04-16T07:11:05.338Z,1.8
2023-04-16T07:16:49.429Z,1.7
2023-04-16T07:22:34.587Z,1.6
2023-04-16T07:28:18.359Z,1.8
2023-04-16T07:34:02.446Z,1.8
2023-04-16T07:39:46.675Z,1.7
2023-04-16T07:45:30.751Z,1.8
2023-04-16T07:51:14.835Z,1.8
2023-04-16T07:56:58.890Z,1.7
2023-04-16T08:02:43.343Z,1.6
2023-04-16T08:08:29.864Z,1.8
2023-04-16T08:14:13.939Z,1.9
2023-04-16T08:19:58.118Z,2
2023-04-16T08:25:42.332Z,2.2
2023-04-16T08:31:26.770Z,2.2
2023-04-16T08:37:11.014Z,2.4
2023-04-16T08:42:55.855Z,2.7
2023-04-16T08:48:40.822Z,2.5
2023-04-16T08:54:30.470Z,3
2023-04-16T09:00:18.052Z,2.5
2023-04-16T09:06:05.194Z,2.9
2023-04-16T09:11:52.323Z,3
2023-04-16T09:17:37.001Z,2.7
2023-04-16T09:23:21.168Z,2.9
2023-04-16T09:29:05.256Z,3.2
2023-04-16T09:35:02.655Z,3.1
2023-04-16T09:40:47.884Z,3.8
2023-04-16T09:46:34.370Z,3.8
2023-04-16T09:52:20.090Z,3.8
2023-04-16T09:58:07.194Z,4
2023-04-16T10:03:52.464Z,4.1
2023-04-16T10:09:39.282Z,4.3
2023-04-16T10:15:23.642Z,4.7
2023-04-16T10:21:07.648Z,4.7
2023-04-16T10:26:53.889Z,4.5
2023-04-16T10:32:38.716Z,5.2
2023-04-16T10:38:31.858Z,5.3
2023-04-16T10:44:15.936Z,5.1
2023-04-16T10:50:00.203Z,5.2
2023-04-16T10:55:49.618Z,5.5
2023-04-16T11:01:37.934Z,5
2023-04-16T11:07:23.820Z,5.6
2023-04-16T11:13:08.751Z,5.3
2023-04-16T11:18:56.963Z,5
2023-04-16T11:24:41.326Z,5
2023-04-16T11:30:30.350Z,4.9
2023-04-16T11:36:14.602Z,4.7
2023-04-16T11:41:58.900Z,4.7
2023-04-16T11:47:49.177Z,4.7
2023-04-16T11:53:33.296Z,4.5
2023-04-16T11:59:18.309Z,4.3
2023-04-16T12:05:02.547Z,4.5
2023-04-16T12:10:58.396Z,4.8
2023-04-16T12:16:42.698Z,4.6
2023-04-16T12:22:36.954Z,4.8
2023-04-16T12:28:25.827Z,4.9
2023-04-16T12:34:10.017Z,4.9
2023-04-16T12:39:54.051Z,4.9
2023-04-16T12:45:38.614Z,4.6
2023-04-16T12:51:22.754Z,4.9
2023-04-16T12:57:06.898Z,5
2023-04-16T13:02:52.406Z,5.1
2023-04-16T13:08:36.704Z,5.5
2023-04-16T13:14:21.690Z,5.8
2023-04-16T13:20:05.898Z,5.6
2023-04-16T13:25:51.871Z,5.6
2023-04-16T13:31:35.985Z,6
2023-04-16T13:37:20.292Z,5.6
2023-04-16T13:43:05.948Z,5.8
2023-04-16T13:48:51.689Z,6.4
2023-04-16T13:54:35.995Z,6.2
2023-04-16T14:00:20.467Z,6.3
2023-04-16T14:06:04.827Z,7
2023-04-16T14:11:49.030Z,6.8
2023-04-16T14:17:33.382Z,6.7
2023-04-16T14:23:17.348Z,7
2023-04-16T14:29:01.494Z,6.8
2023-04-16T14:34:45.486Z,7
2023-04-16T14:40:30.742Z,6.9
2023-04-16T14:46:14.918Z,7
2023-04-16T14:51:58.994Z,6.9
2023-04-16T14:57:43.012Z,7.4
2023-04-16T15:03:28.011Z,7.6
2023-04-16T15:09:13.042Z,7.5
2023-04-16T15:14:57.191Z,7.8
2023-04-16T15:20:41.177Z,8.1
2023-04-16T15:26:25.134Z,8.1
2023-04-16T15:32:09.303Z,7.6
2023-04-16T15:37:53.427Z,7.9
2023-04-16T15:43:37.429Z,7.6
2023-04-16T15:49:21.451Z,7.9
2023-04-16T15:55:06.639Z,8.4
2023-04-16T16:00:51.548Z,8.1
2023-04-16T16:06:36.059Z,7.9
2023-04-16T16:12:20.145Z,7.8
2023-04-16T16:18:04.249Z,8.5
2023-04-16T16:23:48.430Z,8.1
2023-04-16T16:29:32.451Z,8.8
2023-04-16T16:35:16.386Z,8.8
2023-04-16T16:41:00.568Z,8.8
2023-04-16T16:46:47.941Z,9.2
2023-04-16T16:52:32.124Z,9.3
2023-04-16T16:58:16.150Z,9.4
2023-04-16T17:04:00.950Z,9.2
2023-04-16T17:09:45.053Z,9.8
2023-04-16T17:15:29.307Z,9.8
2023-04-16T17:21:15.140Z,9.9
2023-04-16T17:27:00.057Z,10.1
2023-04-16T17:32:44.319Z,10
2023-04-16T17:38:28.436Z,10.3
2023-04-16T17:44:14.546Z,9.8
2023-04-16T17:49:59.135Z,9.6
2023-04-16T17:55:43.083Z,9.8
2023-04-16T18:01:28.422Z,9.6
2023-04-16T18:07:14.170Z,10.2
2023-04-16T18:12:58.462Z,9
2023-04-16T18:18:43.498Z,8.3
2023-04-16T18:24:27.696Z,8.8
2023-04-16T18:30:26.277Z,8.9
2023-04-16T18:36:11.319Z,22.3
2023-04-16T18:41:55.256Z,15.9
2023-04-16T18:47:39.514Z,15.8
2023-04-16T18:53:23.714Z,14.1
2023-04-16T18:59:10.393Z,13.2
2023-04-16T19:04:55.023Z,12.9
2023-04-16T19:10:38.946Z,11.8
2023-04-16T19:16:23.229Z,11.8
2023-04-16T19:22:07.315Z,12.1
2023-04-16T19:27:51.694Z,12.4
2023-04-16T19:33:35.598Z,11.7
2023-04-16T19:39:19.682Z,11.8
2023-04-16T19:45:03.795Z,11.4
2023-04-16T19:50:48.772Z,11.4
2023-04-16T19:56:32.632Z,12
2023-04-16T20:02:19.838Z,12
2023-04-16T20:08:04.086Z,11.6
2023-04-16T20:13:48.209Z,12.5
2023-04-16T20:19:32.242Z,12.3
2023-04-16T20:25:16.322Z,12.9
2023-04-16T20:31:00.677Z,12.8
2023-04-16T20:36:44.789Z,13
2023-04-16T20:42:28.784Z,13.4
2023-04-16T20:48:13.013Z,14.6
2023-04-16T20:53:57.001Z,13.4
2023-04-16T20:59:41.126Z,14
2023-04-16T21:05:25.083Z,14.4
2023-04-16T21:11:09.962Z,14.7
2023-04-16T21:16:54.038Z,14.6
2023-04-16T21:22:38.136Z,14.8
2023-04-16T21:28:21.925Z,14.5
2023-04-16T21:34:06.050Z,15.4
2023-04-16T21:39:50.062Z,15.9
2023-04-16T21:45:34.160Z,16.7
2023-04-16T21:51:18.353Z,16.3
2023-04-16T21:57:02.321Z,17
2023-04-16T22:02:47.023Z,17.4
2023-04-16T22:08:31.820Z,17
2023-04-16T22:14:15.796Z,16.9
2023-04-16T22:19:59.769Z,16.9
2023-04-16T22:25:43.769Z,16.9
2023-04-16T22:31:27.992Z,17.7
2023-04-16T22:37:12.078Z,17
2023-04-16T22:42:55.947Z,17.3
2023-04-16T22:48:39.977Z,17.2
2023-04-16T22:54:23.934Z,16.8
2023-04-16T23:00:08.766Z,17.4
2023-04-16T23:05:52.777Z,16.7
2023-04-16T23:11:36.874Z,16
2023-04-16T23:17:20.895Z,16.6
2023-04-16T23:23:05.036Z,16.2
2023-04-16T23:28:51.073Z,16.2
2023-04-16T23:34:35.228Z,15.8
2023-04-16T23:40:20.569Z,16.1
2023-04-16T23:46:05.267Z,16
2023-04-16T23:51:49.413Z,15.9
2023-04-16T23:57:34.391Z,15.9
